createdAt,value
2022-09-28T00:02:01.571Z,77.06
2022-09-28T00:04:50.504Z,76.57
2022-09-28T00:07:32.768Z,76.39
2022-09-28T00:10:21.504Z,77.02
2022-09-28T00:13:10.546Z,76.52
2022-09-28T00:16:17.103Z,75.95
2022-09-28T00:19:00.503Z,77.48
2022-09-28T00:21:50.417Z,77.42
2022-09-28T00:24:39.405Z,76.93
2022-09-28T00:27:28.394Z,77.15
2022-09-28T00:30:18.518Z,77.38
2022-09-28T00:33:00.708Z,76.33
2022-09-28T00:35:50.526Z,77.25
2022-09-28T00:38:41.670Z,76.60
2022-09-28T00:41:24.390Z,77.46
2022-09-28T00:44:33.435Z,77.30
2022-09-28T00:47:48.484Z,77.77
2022-09-28T00:50:44.415Z,78.32
2022-09-28T00:53:38.407Z,78.78
2022-09-28T00:56:25.356Z,77.64
2022-09-28T00:59:16.660Z,77.03
2022-09-28T01:01:59.163Z,77.30
2022-09-28T01:04:48.413Z,77.78
2022-09-28T01:07:39.806Z,77.01
2022-09-28T01:10:23.505Z,76.57
2022-09-28T01:13:05.893Z,77.80
2022-09-28T01:16:21.582Z,76.45
2022-09-28T01:19:26.333Z,76.71
2022-09-28T01:22:43.494Z,77.27
2022-09-28T01:25:58.788Z,76.85
2022-09-28T01:28:41.550Z,76.19
2022-09-28T01:31:31.742Z,76.33
2022-09-28T01:34:33.486Z,77.10
2022-09-28T01:37:27.481Z,76.88
2022-09-28T01:40:12.770Z,77.35
2022-09-28T01:43:12.492Z,77.31
2022-09-28T01:46:07.798Z,76.81
2022-09-28T01:49:01.503Z,77.09
2022-09-28T01:51:59.496Z,77.00
2022-09-28T01:55:14.784Z,77.13
2022-09-28T01:58:19.839Z,76.78
2022-09-28T02:01:16.085Z,76.21
2022-09-28T02:04:22.473Z,76.97
2022-09-28T02:07:21.824Z,75.79
2022-09-28T02:10:09.496Z,74.25
2022-09-28T02:13:13.762Z,75.26
2022-09-28T02:16:05.551Z,75.14
2022-09-28T02:18:48.513Z,74.69
2022-09-28T02:21:40.487Z,75.69
2022-09-28T02:24:33.555Z,74.95
2022-09-28T02:27:32.494Z,73.38
2022-09-28T02:30:21.772Z,73.17
2022-09-28T02:33:13.489Z,73.62
2022-09-28T02:35:59.104Z,73.14
2022-09-28T02:38:52.482Z,73.35
2022-09-28T02:41:54.340Z,72.90
2022-09-28T02:45:18.470Z,73.72
2022-09-28T02:48:55.763Z,72.45
2022-09-28T02:52:02.933Z,72.46
2022-09-28T02:55:15.477Z,71.94
2022-09-28T02:58:04.620Z,71.05
2022-09-28T03:00:57.524Z,70.01
2022-09-28T03:03:56.779Z,71.14
2022-09-28T03:07:14.496Z,70.82
2022-09-28T03:10:17.926Z,71.85
2022-09-28T03:13:08.486Z,69.59
2022-09-28T03:15:57.464Z,70.80
2022-09-28T03:18:47.487Z,70.56
2022-09-28T03:21:36.496Z,68.81
2022-09-28T03:24:25.475Z,69.09
2022-09-28T03:27:07.755Z,70.06
2022-09-28T03:29:56.471Z,68.23
2022-09-28T03:32:38.992Z,67.34
2022-09-28T03:35:28.479Z,65.45
2022-09-28T03:38:10.689Z,66.71
2022-09-28T03:41:11.479Z,65.91
2022-09-28T03:44:00.366Z,65.12
2022-09-28T03:46:42.906Z,64.96
2022-09-28T03:49:31.377Z,64.17
2022-09-28T03:52:13.782Z,65.29
2022-09-28T03:55:02.470Z,66.11
2022-09-28T03:57:51.474Z,63.28
2022-09-28T04:00:33.888Z,64.73
2022-09-28T04:03:22.487Z,64.49
2022-09-28T04:06:04.738Z,64.23
2022-09-28T04:08:53.476Z,63.69
2022-09-28T04:12:02.290Z,64.31
2022-09-28T04:14:45.479Z,63.38
2022-09-28T04:17:37.756Z,62.60
2022-09-28T04:20:35.390Z,62.49
2022-09-28T04:23:21.525Z,60.68
2022-09-28T04:26:10.504Z,59.87
2022-09-28T04:29:18.345Z,61.45
2022-09-28T04:32:05.589Z,58.82
2022-09-28T04:34:55.949Z,58.28
2022-09-28T04:37:39.500Z,55.85
2022-09-28T04:40:21.806Z,54.37
2022-09-28T04:43:11.473Z,54.06
2022-09-28T04:46:05.550Z,54.66
2022-09-28T04:49:07.514Z,53.57
2022-09-28T04:51:57.724Z,55.58
2022-09-28T04:54:48.493Z,54.93
2022-09-28T04:57:32.652Z,53.70
2022-09-28T05:00:22.471Z,53.76
2022-09-28T05:03:15.723Z,52.73
2022-09-28T05:06:30.383Z,52.30
2022-09-28T05:09:21.486Z,50.01
2022-09-28T05:12:03.832Z,50.84
2022-09-28T05:14:53.470Z,52.08
2022-09-28T05:17:42.487Z,51.86
2022-09-28T05:20:56.481Z,51.16
2022-09-28T05:23:47.421Z,50.63
2022-09-28T05:26:37.396Z,53.54
2022-09-28T05:29:33.495Z,50.52
2022-09-28T05:32:40.483Z,50.96
2022-09-28T05:35:53.830Z,49.16
2022-09-28T05:38:45.477Z,50.68
2022-09-28T05:41:27.940Z,47.64
2022-09-28T05:44:10.592Z,51.42
2022-09-28T05:47:07.491Z,50.43
2022-09-28T05:49:49.697Z,50.25
2022-09-28T05:52:38.532Z,49.10
2022-09-28T05:55:29.989Z,48.14
2022-09-28T05:58:14.579Z,50.05
2022-09-28T06:00:57.655Z,47.49
2022-09-28T06:03:46.480Z,49.38
2022-09-28T06:06:31.675Z,48.29
2022-09-28T06:09:25.155Z,49.32
2022-09-28T06:12:13.673Z,49.93
2022-09-28T06:15:07.491Z,51.82
2022-09-28T06:17:56.385Z,49.81
2022-09-28T06:20:56.472Z,47.69
2022-09-28T06:23:49.490Z,47.11
2022-09-28T06:26:33.474Z,49.00
2022-09-28T06:29:20.249Z,47.53
2022-09-28T06:32:09.393Z,46.79
2022-09-28T06:34:56.432Z,46.91
2022-09-28T06:37:45.411Z,45.87
2022-09-28T06:40:37.323Z,45.45
2022-09-28T06:43:23.388Z,48.86
2022-09-28T06:46:22.033Z,48.00
2022-09-28T06:49:29.479Z,47.36
2022-09-28T06:52:29.663Z,46.39
2022-09-28T06:55:22.489Z,47.60
2022-09-28T06:58:08.581Z,47.07
2022-09-28T07:00:57.452Z,43.20
2022-09-28T07:03:57.549Z,46.09
2022-09-28T07:07:00.167Z,45.49
2022-09-28T07:10:17.488Z,47.63
2022-09-28T07:13:45.071Z,45.17
2022-09-28T07:16:31.773Z,46.52
2022-09-28T07:19:17.892Z,49.14
2022-09-28T07:22:06.423Z,46.69
2022-09-28T07:24:57.645Z,45.06
2022-09-28T07:27:52.065Z,45.34
2022-09-28T07:30:52.599Z,45.11
2022-09-28T07:33:54.926Z,46.24
2022-09-28T07:36:47.518Z,44.90
2022-09-28T07:39:29.732Z,45.95
2022-09-28T07:42:18.548Z,48.17
2022-09-28T07:45:08.770Z,47.87
2022-09-28T07:48:05.421Z,46.58
2022-09-28T07:51:15.783Z,46.95
2022-09-28T07:54:35.480Z,50.18
2022-09-28T07:57:40.380Z,50.04
2022-09-28T08:00:47.662Z,46.43
2022-09-28T08:03:30.916Z,46.63
2022-09-28T08:06:22.497Z,46.71
2022-09-28T08:09:06.795Z,47.52
2022-09-28T08:12:15.497Z,46.92
2022-09-28T08:15:23.472Z,51.33
2022-09-28T08:18:19.372Z,48.17
2022-09-28T08:21:27.379Z,45.93
2022-09-28T08:24:16.400Z,48.84
2022-09-28T08:27:01.489Z,47.63
2022-09-28T08:29:51.871Z,50.01
2022-09-28T08:32:58.489Z,49.17
2022-09-28T08:36:00.936Z,50.46
2022-09-28T08:39:42.470Z,47.81
2022-09-28T08:43:06.447Z,47.16
2022-09-28T08:46:15.521Z,49.05
2022-09-28T08:49:42.995Z,53.55
2022-09-28T08:52:42.468Z,48.48
2022-09-28T08:56:10.372Z,48.96
2022-09-28T08:59:05.410Z,50.13
2022-09-28T09:02:10.807Z,49.46
2022-09-28T09:04:53.397Z,50.42
2022-09-28T09:08:09.863Z,47.98
2022-09-28T09:11:32.499Z,49.22
2022-09-28T09:14:45.077Z,49.27
2022-09-28T09:17:33.500Z,49.03
2022-09-28T09:20:53.970Z,48.56
2022-09-28T09:24:00.478Z,48.39
2022-09-28T09:26:42.992Z,48.61
2022-09-28T09:29:57.478Z,47.74
2022-09-28T09:33:09.792Z,48.45
2022-09-28T09:36:29.486Z,51.54
2022-09-28T09:40:03.737Z,48.44
2022-09-28T09:43:31.552Z,48.59
2022-09-28T09:47:15.384Z,48.89
2022-09-28T09:50:25.491Z,48.99
2022-09-28T09:53:26.810Z,47.20
2022-09-28T09:56:42.491Z,50.25
2022-09-28T09:59:35.778Z,49.15
2022-09-28T10:02:39.462Z,48.58
2022-09-28T10:05:41.809Z,49.81
2022-09-28T10:08:32.490Z,49.72
2022-09-28T10:11:20.045Z,51.13
2022-09-28T10:14:11.491Z,51.44
2022-09-28T10:17:02.997Z,51.05
2022-09-28T10:20:27.481Z,50.18
2022-09-28T10:23:48.402Z,51.80
2022-09-28T10:26:48.402Z,51.04
2022-09-28T10:29:35.761Z,51.35
2022-09-28T10:32:32.399Z,50.13
2022-09-28T10:35:26.900Z,49.77
2022-09-28T10:38:27.406Z,51.04
2022-09-28T10:41:30.357Z,51.10
2022-09-28T10:44:29.378Z,51.13
2022-09-28T10:47:36.745Z,50.16
2022-09-28T10:50:34.503Z,51.01
2022-09-28T10:53:29.782Z,50.91
2022-09-28T10:56:45.480Z,51.43
2022-09-28T10:59:49.774Z,52.35
2022-09-28T11:02:46.593Z,51.63
2022-09-28T11:05:34.811Z,52.84
2022-09-28T11:08:33.368Z,52.28
2022-09-28T11:11:19.173Z,52.78
2022-09-28T11:14:37.208Z,54.71
2022-09-28T11:17:31.756Z,56.09
2022-09-28T11:20:33.367Z,54.37
2022-09-28T11:23:27.750Z,55.84
2022-09-28T11:26:30.388Z,54.88
2022-09-28T11:29:13.747Z,55.33
2022-09-28T11:32:16.035Z,55.99
2022-09-28T11:35:27.819Z,54.34
2022-09-28T11:38:43.461Z,55.20
2022-09-28T11:42:28.758Z,55.32
2022-09-28T11:45:42.530Z,53.33
2022-09-28T11:48:58.823Z,53.69
2022-09-28T11:51:48.377Z,53.24
2022-09-28T11:54:59.512Z,54.11
2022-09-28T11:57:50.832Z,56.32
2022-09-28T12:00:43.484Z,55.62
2022-09-28T12:03:34.012Z,57.52
2022-09-28T12:06:27.484Z,59.35
2022-09-28T12:09:24.796Z,57.39
2022-09-28T12:12:43.354Z,57.60
2022-09-28T12:15:38.219Z,57.67
2022-09-28T12:18:47.490Z,58.26
2022-09-28T12:21:52.350Z,58.76
2022-09-28T12:24:53.453Z,58.23
2022-09-28T12:27:44.979Z,56.59
2022-09-28T12:30:38.412Z,57.04
2022-09-28T12:33:29.778Z,56.11
2022-09-28T12:36:31.502Z,54.01
2022-09-28T12:39:53.930Z,54.05
2022-09-28T12:43:30.040Z,53.69
2022-09-28T12:46:40.486Z,53.69
2022-09-28T12:53:17.528Z,53.82
2022-09-28T12:56:20.923Z,54.08
2022-09-28T12:59:33.381Z,55.10
2022-09-28T13:02:50.544Z,55.40
2022-09-28T13:06:01.973Z,55.43
2022-09-28T13:09:03.522Z,55.46
2022-09-28T13:12:18.540Z,55.90
2022-09-28T13:15:25.500Z,56.16
2022-09-28T13:18:17.564Z,58.10
2022-09-28T13:21:27.359Z,60.14
2022-09-28T13:24:32.076Z,59.54
2022-09-28T13:27:32.991Z,60.16
2022-09-28T13:30:17.922Z,60.22
2022-09-28T13:33:09.966Z,59.85
2022-09-28T13:35:52.449Z,60.08
2022-09-28T13:38:55.053Z,60.87
2022-09-28T13:41:44.468Z,60.68
2022-09-28T13:44:48.233Z,60.47
2022-09-28T13:47:55.411Z,60.59
2022-09-28T13:51:14.648Z,61.18
2022-09-28T13:54:27.905Z,61.06
2022-09-28T13:57:33.563Z,61.26
2022-09-28T14:00:25.866Z,61.34
2022-09-28T14:03:31.496Z,62.10
2022-09-28T14:06:32.852Z,62.92
2022-09-28T14:09:21.563Z,62.60
2022-09-28T14:12:11.782Z,62.41
2022-09-28T14:15:00.464Z,62.41
2022-09-28T14:17:58.460Z,61.75
2022-09-28T14:21:02.589Z,62.53
2022-09-28T14:24:31.822Z,62.38
2022-09-28T14:27:28.525Z,62.99
2022-09-28T14:30:20.554Z,63.94
2022-09-28T14:33:06.920Z,64.08
2022-09-28T14:36:04.626Z,63.55
2022-09-28T14:39:16.747Z,64.11
2022-09-28T14:42:05.416Z,65.01
2022-09-28T14:45:12.879Z,65.12
2022-09-28T14:48:23.450Z,64.93
2022-09-28T14:51:36.540Z,65.74
2022-09-28T14:54:31.457Z,66.13
2022-09-28T14:57:24.983Z,66.41
2022-09-28T15:00:23.495Z,66.53
2022-09-28T15:03:12.996Z,67.08
2022-09-28T15:06:04.103Z,66.88
2022-09-28T15:08:47.881Z,66.93
2022-09-28T15:11:36.441Z,67.30
2022-09-28T15:14:19.943Z,68.11
2022-09-28T15:17:16.497Z,67.44
2022-09-28T15:20:09.875Z,67.59
2022-09-28T15:23:05.399Z,67.95
2022-09-28T15:25:48.836Z,67.83
2022-09-28T15:28:38.572Z,68.13
2022-09-28T15:31:28.840Z,68.51
2022-09-28T15:34:55.877Z,68.75
2022-09-28T15:37:50.479Z,68.31
2022-09-28T15:40:52.543Z,68.92
2022-09-28T15:43:38.202Z,69.52
2022-09-28T15:46:36.593Z,69.40
2022-09-28T15:49:51.474Z,69.62
2022-09-28T15:52:54.066Z,70.02
2022-09-28T15:55:52.406Z,70.23
2022-09-28T15:58:42.532Z,70.40
2022-09-28T16:01:40.796Z,70.63
2022-09-28T16:04:48.466Z,70.70
2022-09-28T16:07:40.060Z,70.55
2022-09-28T16:10:30.495Z,71.14
2022-09-28T16:13:31.426Z,71.05
2022-09-28T16:16:26.585Z,71.23
2022-09-28T16:19:10.277Z,71.23
2022-09-28T16:22:06.242Z,71.17
2022-09-28T16:24:48.954Z,71.51
2022-09-28T16:27:52.518Z,71.46
2022-09-28T16:30:43.034Z,71.74
2022-09-28T16:33:39.095Z,72.25
2022-09-28T16:36:28.099Z,72.54
2022-09-28T16:39:20.671Z,72.50
2022-09-28T16:42:09.830Z,72.22
2022-09-28T16:44:58.512Z,72.30
2022-09-28T16:47:48.505Z,73.06
2022-09-28T16:50:44.441Z,72.82
2022-09-28T16:53:52.563Z,72.34
2022-09-28T16:56:36.377Z,72.32
2022-09-28T16:59:25.547Z,72.74
2022-09-28T17:02:08.920Z,73.90
2022-09-28T17:04:57.583Z,73.59
2022-09-28T17:07:46.407Z,73.55
2022-09-28T17:11:13.821Z,73.41
2022-09-28T17:14:06.541Z,73.57
2022-09-28T17:17:13.785Z,73.07
2022-09-28T17:19:56.524Z,73.22
2022-09-28T17:22:38.921Z,73.67
2022-09-28T17:25:27.597Z,74.22
2022-09-28T17:28:27.052Z,73.66
2022-09-28T17:31:09.516Z,74.68
2022-09-28T17:34:23.129Z,74.40
2022-09-28T17:37:06.509Z,74.88
2022-09-28T17:39:49.076Z,74.23
2022-09-28T17:42:43.891Z,74.64
2022-09-28T17:45:29.607Z,74.26
2022-09-28T17:48:19.694Z,74.27
2022-09-28T17:51:16.532Z,73.87
2022-09-28T17:54:08.797Z,75.21
2022-09-28T17:56:51.058Z,74.86
2022-09-28T17:59:40.634Z,74.95
2022-09-28T18:02:29.478Z,75.34
2022-09-28T18:05:21.466Z,75.75
2022-09-28T18:08:12.493Z,75.87
2022-09-28T18:10:55.734Z,75.52
2022-09-28T18:16:35.461Z,75.41
2022-09-28T18:19:17.914Z,75.82
2022-09-28T18:22:06.451Z,75.38
2022-09-28T18:24:57.480Z,75.72
2022-09-28T18:27:39.699Z,76.16
2022-09-28T18:30:28.480Z,76.45
2022-09-28T18:33:18.456Z,75.64
2022-09-28T18:36:09.455Z,75.79
2022-09-28T18:38:58.494Z,76.10
2022-09-28T18:41:40.822Z,75.84
2022-09-28T18:44:29.479Z,75.49
2022-09-28T18:47:14.649Z,75.53
2022-09-28T18:50:05.514Z,75.83
2022-09-28T18:52:55.398Z,75.57
2022-09-28T18:55:40.305Z,75.21
2022-09-28T18:58:29.454Z,75.14
2022-09-28T19:01:30.438Z,76.11
2022-09-28T19:04:16.909Z,76.41
2022-09-28T19:07:06.378Z,76.25
2022-09-28T19:09:48.904Z,76.28
2022-09-28T19:12:37.479Z,76.35
2022-09-28T19:15:20.655Z,76.11
2022-09-28T19:18:09.442Z,76.57
2022-09-28T19:20:51.894Z,76.91
2022-09-28T19:23:42.371Z,76.55
2022-09-28T19:26:34.719Z,77.38
2022-09-28T19:29:27.466Z,77.20
2022-09-28T19:32:19.343Z,77.34
2022-09-28T19:35:09.416Z,77.26
2022-09-28T19:37:54.457Z,76.91
2022-09-28T19:40:45.640Z,76.89
2022-09-28T19:43:27.901Z,77.42
2022-09-28T19:46:16.472Z,76.98
2022-09-28T19:49:05.369Z,77.68
2022-09-28T19:52:13.916Z,76.89
2022-09-28T19:55:05.450Z,76.66
2022-09-28T19:57:49.072Z,77.10
2022-09-28T20:00:37.429Z,77.91
2022-09-28T20:03:29.357Z,77.83
2022-09-28T20:06:18.324Z,78.12
2022-09-28T20:09:07.836Z,78.29
2022-09-28T20:11:50.343Z,77.13
2022-09-28T20:14:37.976Z,77.57
2022-09-28T20:17:29.334Z,77.37
2022-09-28T20:20:26.354Z,77.74
2022-09-28T20:23:15.781Z,77.81
2022-09-28T20:26:00.444Z,77.92
2022-09-28T20:28:43.966Z,77.20
2022-09-28T20:31:36.448Z,76.79
2022-09-28T20:34:18.749Z,76.67
2022-09-28T20:37:07.424Z,76.55
2022-09-28T20:39:49.937Z,76.65
2022-09-28T20:42:39.421Z,76.17
2022-09-28T20:45:21.761Z,76.02
2022-09-28T20:48:14.351Z,76.08
2022-09-28T20:51:19.463Z,75.56
2022-09-28T20:54:08.331Z,75.35
2022-09-28T20:56:59.435Z,75.40
2022-09-28T20:59:54.489Z,74.88
2022-09-28T21:02:38.456Z,75.03
2022-09-28T21:05:27.409Z,75.11
2022-09-28T21:08:09.803Z,75.59
2022-09-28T21:11:01.443Z,75.07
2022-09-28T21:13:44.006Z,75.78
2022-09-28T21:16:34.435Z,75.25
2022-09-28T21:19:16.705Z,75.29
2022-09-28T21:22:05.445Z,75.26
2022-09-28T21:24:54.412Z,75.08
2022-09-28T21:27:43.444Z,75.49
2022-09-28T21:30:32.427Z,75.53
2022-09-28T21:33:14.714Z,75.27
2022-09-28T21:36:03.452Z,75.73
2022-09-28T21:38:47.224Z,76.04
2022-09-28T21:41:37.287Z,75.69
2022-09-28T21:44:26.773Z,75.53
2022-09-28T21:47:08.450Z,75.39
2022-09-28T21:50:03.292Z,76.02
2022-09-28T21:52:54.342Z,75.83
2022-09-28T21:55:36.726Z,75.56
2022-09-28T21:58:25.436Z,74.91
2022-09-28T22:01:09.792Z,74.90
2022-09-28T22:04:00.334Z,75.01
2022-09-28T22:06:50.862Z,75.98
2022-09-28T22:09:39.734Z,75.59
2022-09-28T22:12:22.483Z,75.45
2022-09-28T22:15:06.314Z,75.67
2022-09-28T22:17:55.443Z,75.81
2022-09-28T22:20:37.683Z,75.31
2022-09-28T22:23:26.345Z,76.06
2022-09-28T22:26:19.459Z,76.00
2022-09-28T22:29:06.889Z,76.56
2022-09-28T22:31:55.557Z,76.02
2022-09-28T22:34:38.864Z,76.36
2022-09-28T22:37:27.336Z,75.96
2022-09-28T22:40:12.226Z,76.81
2022-09-28T22:43:02.433Z,76.41
2022-09-28T22:45:44.790Z,76.52
2022-09-28T22:48:33.446Z,76.75
2022-09-28T22:51:29.354Z,76.66
2022-09-28T22:54:24.441Z,76.66
2022-09-28T22:57:06.745Z,77.27
2022-09-28T22:59:55.434Z,77.75
2022-09-28T23:02:44.468Z,77.36
2022-09-28T23:05:26.645Z,77.68
2022-09-28T23:08:15.430Z,77.73
2022-09-28T23:10:57.665Z,77.79
2022-09-28T23:13:47.351Z,77.49
2022-09-28T23:16:37.417Z,77.10
2022-09-28T23:19:19.799Z,77.00
2022-09-28T23:22:08.503Z,76.64
2022-09-28T23:24:50.736Z,76.41
2022-09-28T23:27:39.619Z,76.41
2022-09-28T23:30:24.295Z,76.29
2022-09-28T23:33:13.340Z,76.76
2022-09-28T23:36:02.346Z,76.81
2022-09-28T23:38:51.732Z,76.37
2022-09-28T23:41:34.438Z,76.35
2022-09-28T23:44:16.610Z,76.76
2022-09-28T23:47:05.452Z,77.04
2022-09-28T23:50:00.303Z,77.05
2022-09-28T23:52:49.343Z,76.75
2022-09-28T23:55:31.699Z,76.42
2022-09-28T23:58:20.446Z,76.63
